BRU weather

Brussels Airport
Brussels, Brussels-Capital Region, Belgium

Public forecast

Using degrees Celsius for public forecast. Weather courtesy of forecast.io.

Current aviation weather report (METAR) for Brussels Airport

Retrieved 2020/05/27 09:20 UTC (0 seconds ago):

EBBR 270920Z VRB03KT CAVOK 20/10 Q1034 NOSIG

Aviation forecast (TAF) for Brussels Airport

Retrieved 2020/05/27 06:27 UTC (3 hours ago):

TAF TAF EBBR 270501Z 2706/2812 34006KT 9999 FEW030 BECMG 2804/2806 06010KT